Time;durP1;ratioP1;P1;durP2;ratioP2;P2;SDS_P1;SDS_P2;PMS_P1;PMS_P2;Temp;Humidity;BMP_temperature;BMP_pressure;BME280_temperature;BME280_humidity;BME280_pressure;Samples;Min_cycle;Max_cycle;Signal;HPM_P1;HPM_P2
2023/10/17 00:01:34;;;;;;;7.72;3.90;;;;;;;7.57;100.00;102255.53;4866731;29;20052;-74
2023/10/17 00:06:46;;;;;;;10.35;4.25;;;;;;;7.52;100.00;102250.09;4910980;29;20047;-74
2023/10/17 00:09:21;;;;;;;4.65;4.10;;;;;;;7.50;100.00;102249.16;4910422;29;20044;-73
2023/10/17 00:14:20;;;;;;;6.63;3.97;;;;;;;7.46;100.00;102243.75;4917787;28;20035;-73
2023/10/17 00:16:47;;;;;;;5.50;4.35;;;;;;;7.44;100.00;102241.06;4874969;29;20047;-73
2023/10/17 00:19:16;;;;;;;6.88;4.55;;;;;;;7.42;100.00;102233.13;4937277;29;20066;-73
2023/10/17 00:21:44;;;;;;;10.65;4.25;;;;;;;7.41;100.00;102231.34;4952306;29;20047;-73
2023/10/17 00:24:12;;;;;;;8.88;3.95;;;;;;;7.41;100.00;102235.72;4923321;29;20047;-73
2023/10/17 00:26:39;;;;;;;5.88;3.95;;;;;;;7.40;100.00;102229.53;4900749;29;20575;-73
2023/10/17 00:29:09;;;;;;;5.50;3.75;;;;;;;7.41;100.00;102231.34;4912978;28;20050;-73
2023/10/17 00:31:38;;;;;;;8.10;4.07;;;;;;;7.40;100.00;102226.91;4936885;28;20059;-73
2023/10/17 00:34:21;;;;;;;6.45;4.38;;;;;;;7.40;100.00;102237.41;4871429;29;20527;-73
2023/10/17 00:36:49;;;;;;;4.13;3.72;;;;;;;7.39;100.00;102227.78;4915293;29;20425;-73
2023/10/17 00:39:36;;;;;;;5.63;3.92;;;;;;;7.38;100.00;102225.97;4916755;28;20051;-73
2023/10/17 00:44:37;;;;;;;7.22;4.50;;;;;;;7.37;100.00;102218.97;4948771;29;20493;-73
2023/10/17 00:47:08;;;;;;;5.38;3.55;;;;;;;7.36;100.00;102225.03;4922376;29;20051;-74
2023/10/17 00:49:40;;;;;;;9.80;4.38;;;;;;;7.36;100.00;102224.13;4905286;28;20835;-74
2023/10/17 00:52:19;;;;;;;8.32;3.80;;;;;;;7.35;100.00;102220.63;4954741;28;20067;-74
2023/10/17 00:54:47;;;;;;;8.40;4.65;;;;;;;7.34;100.00;102218.81;4911816;29;20046;-75
2023/10/17 00:57:15;;;;;;;9.13;4.75;;;;;;;7.33;100.00;102221.38;4895455;28;20047;-73
2023/10/17 01:02:46;;;;;;;11.48;4.80;;;;;;;7.33;100.00;102224.91;4930104;28;20078;-74
2023/10/17 01:05:16;;;;;;;8.13;5.20;;;;;;;7.32;100.00;102222.25;4900588;29;20050;-75
2023/10/17 01:07:44;;;;;;;8.38;4.80;;;;;;;7.33;100.00;102227.50;4913287;29;20539;-74
2023/10/17 01:10:13;;;;;;;6.78;4.68;;;;;;;7.32;100.00;102220.50;4932414;28;20047;-74
2023/10/17 01:12:53;;;;;;;9.32;5.13;;;;;;;7.32;100.00;102227.47;4936403;29;20509;-74
2023/10/17 01:15:28;;;;;;;6.53;4.85;;;;;;;7.32;100.00;102227.47;4929646;28;20035;-74
2023/10/17 01:17:58;;;;;;;7.22;5.28;;;;;;;7.33;100.00;102226.63;4930942;29;20484;-73
2023/10/17 01:20:26;;;;;;;7.70;5.07;;;;;;;7.32;100.00;102228.38;4878606;28;22853;-74
2023/10/17 01:22:55;;;;;;;6.65;5.28;;;;;;;7.34;100.00;102225.81;4922619;29;20059;-74
2023/10/17 01:25:25;;;;;;;8.43;4.80;;;;;;;7.35;100.00;102222.34;4936494;29;20047;-74
2023/10/17 01:27:54;;;;;;;5.60;4.72;;;;;;;7.34;100.00;102216.22;4921824;29;20031;-73
2023/10/17 01:30:22;;;;;;;8.90;5.40;;;;;;;7.34;100.00;102213.59;4945104;29;20051;-73
2023/10/17 01:32:51;;;;;;;5.95;4.32;;;;;;;7.34;100.00;102213.59;4931704;29;20047;-73
2023/10/17 01:35:22;;;;;;;5.90;4.32;;;;;;;7.33;100.00;102217.03;4878132;28;20047;-74
2023/10/17 01:37:50;;;;;;;6.93;3.95;;;;;;;7.31;100.00;102218.69;4939469;29;20051;-74
2023/10/17 01:40:23;;;;;;;10.23;5.55;;;;;;;7.29;100.00;102207.25;4933206;29;20074;-74
2023/10/17 01:42:52;;;;;;;6.68;4.90;;;;;;;7.29;100.00;102203.75;4944543;28;20047;-75
2023/10/17 01:45:25;;;;;;;8.95;5.25;;;;;;;7.28;100.00;102204.56;4927752;29;20053;-74
2023/10/17 01:47:53;;;;;;;7.32;4.55;;;;;;;7.28;100.00;102215.97;4955606;28;20042;-74
2023/10/17 01:50:25;;;;;;;9.48;5.30;;;;;;;7.26;100.00;102212.41;4910392;29;20054;-74
2023/10/17 01:52:53;;;;;;;8.18;4.82;;;;;;;7.25;100.00;102215.84;4866176;29;20060;-74
2023/10/17 01:55:27;;;;;;;10.32;5.95;;;;;;;7.25;100.00;102221.09;4929586;29;20044;-74
2023/10/17 01:57:57;;;;;;;9.10;5.50;;;;;;;7.22;100.00;102213.09;4917489;29;20517;-75
2023/10/17 02:02:55;;;;;;;7.18;5.45;;;;;;;7.18;100.00;102204.25;4934967;29;20066;-73
2023/10/17 02:05:23;;;;;;;16.67;5.65;;;;;;;7.17;100.00;102197.19;4910294;29;20324;-73
2023/10/17 02:07:51;;;;;;;9.15;5.03;;;;;;;7.15;100.00;102208.47;4892477;29;20067;-74
2023/10/17 02:10:21;;;;;;;7.65;5.53;;;;;;;7.14;100.00;102207.56;4918035;29;20051;-75
2023/10/17 02:12:48;;;;;;;8.10;5.50;;;;;;;7.11;100.00;102193.47;4911467;29;20489;-75
2023/10/17 02:15:19;;;;;;;7.20;5.05;;;;;;;7.10;100.00;102199.53;4933275;29;20047;-73
2023/10/17 02:17:47;;;;;;;8.07;5.40;;;;;;;7.08;100.00;102195.97;4921352;29;20039;-74
2023/10/17 02:20:51;;;;;;;6.18;4.88;;;;;;;7.07;100.00;102196.78;4926760;28;20055;-74
2023/10/17 02:23:19;;;;;;;7.90;5.75;;;;;;;7.03;100.00;102196.69;4884643;29;20489;-73
2023/10/17 02:25:46;;;;;;;8.07;5.88;;;;;;;7.03;100.00;102187.88;4914907;29;20512;-73
2023/10/17 02:28:13;;;;;;;8.52;6.10;;;;;;;7.00;100.00;102199.16;4941113;28;20047;-73
2023/10/17 02:30:44;;;;;;;10.05;5.78;;;;;;;7.00;100.00;102190.41;4932184;29;20051;-74
2023/10/17 02:33:17;;;;;;;7.30;5.45;;;;;;;6.99;100.00;102186.91;4936078;29;20051;-75
2023/10/17 02:36:09;;;;;;;11.57;5.88;;;;;;;6.99;100.00;102197.41;4908338;28;20561;-73
2023/10/17 02:38:36;;;;;;;11.25;5.55;;;;;;;6.99;100.00;102191.22;4892174;29;20062;-73
2023/10/17 02:41:08;;;;;;;7.25;5.32;;;;;;;7.00;100.00;102195.66;4919536;29;20497;-74
2023/10/17 02:43:40;;;;;;;8.10;5.55;;;;;;;7.01;100.00;102192.19;4903593;28;20052;-73
2023/10/17 02:46:07;;;;;;;9.85;5.72;;;;;;;7.01;100.00;102193.09;4919353;29;20054;-73
2023/10/17 02:48:38;;;;;;;11.20;5.57;;;;;;;7.04;100.00;102202.81;4897398;29;20056;-74
2023/10/17 02:53:53;;;;;;;9.63;6.13;;;;;;;7.06;100.00;102202.88;4902845;28;20050;-74
2023/10/17 02:56:23;;;;;;;11.23;6.50;;;;;;;7.06;100.00;102203.75;4952290;29;20082;-74
2023/10/17 02:59:04;;;;;;;9.47;5.80;;;;;;;7.05;100.00;102201.97;4939588;28;20044;-74
2023/10/17 03:01:33;;;;;;;10.43;6.07;;;;;;;7.05;100.00;102203.69;4909747;29;20051;-74
2023/10/17 03:04:08;;;;;;;9.90;5.50;;;;;;;7.05;100.00;102207.22;4917961;29;20047;-74
2023/10/17 03:06:40;;;;;;;7.10;5.35;;;;;;;7.05;100.00;102201.06;4932088;29;20051;-74
2023/10/17 03:14:25;;;;;;;8.65;5.75;;;;;;;7.07;100.00;102204.63;4950806;28;20051;-74
2023/10/17 03:16:54;;;;;;;9.45;6.28;;;;;;;7.06;100.00;102211.63;4925627;29;20050;-74
2023/10/17 03:19:26;;;;;;;7.75;5.75;;;;;;;7.08;100.00;102209.06;4915657;29;20055;-74
2023/10/17 03:21:59;;;;;;;8.50;6.10;;;;;;;7.07;100.00;102202.94;4949243;29;20211;-74
2023/10/17 03:24:38;;;;;;;11.60;6.10;;;;;;;7.06;100.00;102195.88;4911170;28;20066;-73
2023/10/17 03:27:11;;;;;;;10.27;5.53;;;;;;;7.05;100.00;102214.16;4903095;29;20062;-75
2023/10/17 03:29:45;;;;;;;7.82;5.45;;;;;;;7.05;100.00;102215.09;4906743;28;20523;-73
2023/10/17 03:32:15;;;;;;;9.48;6.00;;;;;;;7.03;100.00;102212.41;4930949;29;20055;-74
2023/10/17 03:34:45;;;;;;;9.55;6.20;;;;;;;7.02;100.00;102214.97;4898792;29;20774;-74
2023/10/17 03:39:59;;;;;;;9.27;5.78;;;;;;;7.02;100.00;102220.19;4875184;28;20105;-74
2023/10/17 03:45:16;;;;;;;7.40;5.68;;;;;;;7.03;100.00;102222.88;4922754;28;20078;-74
2023/10/17 03:47:49;;;;;;;7.55;5.57;;;;;;;7.02;100.00;102217.56;4937361;29;20043;-73
2023/10/17 03:50:31;;;;;;;8.18;6.30;;;;;;;7.03;100.00;102222.88;4913584;29;20054;-74
2023/10/17 03:53:04;;;;;;;9.50;6.32;;;;;;;7.05;100.00;102222.03;4930573;29;20046;-74
2023/10/17 03:55:35;;;;;;;8.70;5.80;;;;;;;7.07;100.00;102228.22;4925538;28;20047;-74
2023/10/17 03:58:08;;;;;;;8.60;6.22;;;;;;;7.07;100.00;102228.22;4916997;29;20059;-74
2023/10/17 04:00:45;;;;;;;8.48;5.80;;;;;;;7.08;100.00;102225.69;4939308;28;20046;-73
2023/10/17 04:06:01;;;;;;;7.63;5.57;;;;;;;7.11;100.00;102220.56;4927329;29;20059;-73
2023/10/17 04:08:34;;;;;;;13.35;6.07;;;;;;;7.13;100.00;102224.13;4922306;29;20463;-73
2023/10/17 04:13:50;;;;;;;10.55;5.78;;;;;;;7.17;100.00;102219.91;4930497;29;20054;-73
2023/10/17 04:16:34;;;;;;;7.22;5.32;;;;;;;7.17;100.00;102215.56;4915385;28;20058;-75
2023/10/17 04:19:04;;;;;;;6.97;5.88;;;;;;;7.19;100.00;102219.13;4901020;29;20122;-73
2023/10/17 04:21:36;;;;;;;8.98;5.40;;;;;;;7.22;100.00;102226.19;4938600;28;20066;-73
2023/10/17 04:24:07;;;;;;;9.48;6.35;;;;;;;7.22;100.00;102214.00;4917164;29;20078;-73
2023/10/17 04:26:34;;;;;;;;;;;;;;;7.23;100.00;102215.78;4898192;28;20062;-73
2023/10/17 04:29:21;;;;;;;7.30;6.57;;;;;;;7.26;100.00;102217.66;4931554;29;19922;-73
2023/10/17 04:31:55;;;;;;;6.35;5.75;;;;;;;7.27;100.00;102211.56;4906580;29;20055;-73
2023/10/17 04:34:26;;;;;;;10.40;5.65;;;;;;;7.29;100.00;102215.13;4904812;29;20067;-75
2023/10/17 04:36:56;;;;;;;9.32;6.15;;;;;;;7.31;100.00;102218.69;4948768;29;20043;-75
2023/10/17 04:44:23;;;;;;;12.02;7.03;;;;;;;7.37;100.00;102213.72;4884300;29;20063;-73
2023/10/17 04:49:31;;;;;;;12.43;5.97;;;;;;;7.42;100.00;102209.50;4935916;28;20057;-75
2023/10/17 04:52:19;;;;;;;10.75;5.88;;;;;;;7.42;100.00;102212.13;4931105;29;20051;-73
2023/10/17 04:54:53;;;;;;;8.80;5.88;;;;;;;7.45;100.00;102205.22;4930971;29;20039;-73
2023/10/17 04:57:21;;;;;;;6.65;5.63;;;;;;;7.46;100.00;102213.16;4924235;29;20043;-73
2023/10/17 06:17:23;;;;;;;5.95;2.22;;;;;;;7.78;100.00;102231.81;4907816;28;20133;-74
2023/10/17 06:19:52;;;;;;;3.28;2.60;;;;;;;7.80;100.00;102236.28;4918616;29;20048;-75
2023/10/17 06:24:57;;;;;;;8.48;3.00;;;;;;;7.84;100.00;102239.91;4951503;29;20112;-75
2023/10/17 06:30:34;;;;;;;7.70;3.08;;;;;;;7.88;100.00;102238.28;4949972;29;20913;-75
2023/10/17 06:33:17;;;;;;;4.70;2.80;;;;;;;7.90;100.00;102239.25;4892769;29;20058;-74
2023/10/17 06:35:52;;;;;;;4.65;2.67;;;;;;;7.93;100.00;102244.63;4935421;29;20420;-74
2023/10/17 06:38:27;;;;;;;7.72;3.10;;;;;;;7.95;100.00;102245.56;4923046;29;20077;-73
2023/10/17 06:41:15;;;;;;;11.82;5.43;;;;;;;7.96;100.00;102243.00;4947490;29;20058;-73
2023/10/17 06:43:46;;;;;;;4.60;3.00;;;;;;;7.98;100.00;102240.44;4910987;29;20059;-74
2023/10/17 06:46:15;;;;;;;5.15;3.10;;;;;;;7.99;100.00;102247.47;4926255;29;20047;-75
2023/10/17 06:48:56;;;;;;;5.53;3.38;;;;;;;8.01;100.00;102243.16;4888919;29;20050;-74
2023/10/17 06:51:30;;;;;;;3.38;2.70;;;;;;;8.03;100.00;102243.22;4910478;29;20425;-74
2023/10/17 06:54:05;;;;;;;4.50;2.78;;;;;;;8.05;100.00;102244.16;4935640;28;20416;-77
2023/10/17 06:56:38;;;;;;;4.43;2.92;;;;;;;8.07;100.00;102246.03;4940537;29;20050;-76
2023/10/17 06:59:14;;;;;;;4.93;2.47;;;;;;;8.10;100.00;102245.22;4922343;29;20044;-76
2023/10/17 07:01:42;;;;;;;4.22;2.75;;;;;;;8.09;100.00;102240.78;4931455;28;20043;-76
2023/10/17 07:04:11;;;;;;;4.68;2.58;;;;;;;8.08;100.00;102237.28;4916868;29;20767;-77
2023/10/17 07:06:39;;;;;;;7.72;2.60;;;;;;;8.11;100.00;102245.28;4916726;29;20532;-77
2023/10/17 07:09:16;;;;;;;4.57;2.30;;;;;;;8.12;100.00;102243.53;4902072;29;21038;-76
2023/10/17 07:11:47;;;;;;;8.15;2.65;;;;;;;8.15;100.00;102241.94;4918478;29;20051;-76
2023/10/17 07:14:24;;;;;;;3.72;2.05;;;;;;;8.17;100.00;102239.38;4909527;28;20432;-76
2023/10/17 07:17:00;;;;;;;3.15;2.20;;;;;;;8.20;100.00;102244.69;4893266;28;20059;-75
2023/10/17 07:24:31;;;;;;;3.50;2.47;;;;;;;8.32;100.00;102246.88;4939800;28;20425;-76
2023/10/17 07:27:01;;;;;;;5.35;2.75;;;;;;;8.37;100.00;102250.53;4914403;29;20055;-76
2023/10/17 07:29:33;;;;;;;9.50;2.67;;;;;;;8.42;100.00;102243.75;4905187;29;20051;-76
2023/10/17 07:32:08;;;;;;;9.35;2.20;;;;;;;8.47;100.00;102241.28;4890325;28;21064;-76
2023/10/17 07:34:37;;;;;;;4.22;1.77;;;;;;;8.52;100.00;102242.34;4943727;29;20062;-77
2023/10/17 07:40:02;;;;;;;4.93;1.88;;;;;;;8.64;100.00;102248.03;4904915;29;20466;-77
2023/10/17 07:42:40;;;;;;;6.60;1.83;;;;;;;8.70;100.00;102252.59;4947329;29;20058;-77
2023/10/17 07:45:17;;;;;;;8.93;3.03;;;;;;;8.77;100.00;102251.91;4907652;29;20059;-77
2023/10/17 07:47:51;;;;;;;2.85;2.08;;;;;;;8.84;100.00;102251.28;4921733;28;20047;-77
2023/10/17 07:50:20;;;;;;;6.88;2.25;;;;;;;8.91;100.00;102241.88;4935588;28;20988;-77
2023/10/17 07:52:51;;;;;;;6.88;2.40;;;;;;;8.94;100.00;102250.75;4948918;29;20047;-76
2023/10/17 07:55:22;;;;;;;3.38;2.00;;;;;;;9.00;100.00;102246.53;4889182;29;20140;-76
2023/10/17 07:57:53;;;;;;;7.78;3.22;;;;;;;9.05;100.00;102240.56;4931672;29;20044;-77
2023/10/17 08:00:26;;;;;;;3.13;1.90;;;;;;;9.12;100.00;102237.28;4911233;29;20512;-77
2023/10/17 08:03:27;;;;;;;5.60;2.25;;;;;;;9.17;100.00;102238.34;4933295;29;20055;-77
2023/10/17 08:08:36;;;;;;;2.28;2.08;;;;;;;9.32;100.00;102237.91;4932961;29;20051;-75
2023/10/17 08:11:05;;;;;;;4.20;2.20;;;;;;;9.46;100.00;102234.81;4917674;29;20538;-76
2023/10/17 08:13:32;;;;;;;3.35;2.30;;;;;;;9.63;100.00;102232.69;4917005;29;20425;-76
2023/10/17 08:16:10;;;;;;;5.35;2.55;;;;;;;9.87;100.00;102235.13;4922682;29;20047;-76
2023/10/17 08:18:40;;;;;;;3.55;2.15;;;;;;;10.11;100.00;102232.25;4932616;29;20051;-77
2023/10/17 08:24:00;;;;;;;3.33;1.70;;;;;;;10.76;100.00;102212.91;4905680;28;20414;-77
2023/10/17 08:26:40;;;;;;;2.15;1.52;;;;;;;11.03;100.00;102210.00;4904923;29;20051;-77
2023/10/17 08:29:10;;;;;;;4.13;1.92;;;;;;;11.32;100.00;102211.56;4910722;29;20043;-76
2023/10/17 08:31:44;;;;;;;5.75;1.70;;;;;;;11.60;100.00;102212.13;4902449;29;20424;-76
2023/10/17 08:34:12;;;;;;;3.83;1.67;;;;;;;11.86;100.00;102215.31;4922365;29;20054;-76
2023/10/17 08:36:44;;;;;;;2.92;1.65;;;;;;;12.07;100.00;102212.22;4890389;29;20055;-76
2023/10/17 08:42:14;;;;;;;3.88;1.55;;;;;;;12.41;100.00;102214.59;4936269;28;20051;-76
2023/10/17 08:44:46;;;;;;;3.30;1.40;;;;;;;12.53;100.00;102214.78;4935351;29;20035;-77
2023/10/17 08:47:18;;;;;;;1.98;1.42;;;;;;;12.66;100.00;102222.09;4923720;29;20046;-77
2023/10/17 08:49:49;;;;;;;7.05;1.48;;;;;;;12.73;100.00;102223.06;4931421;29;20485;-78
2023/10/17 08:52:24;;;;;;;3.28;1.77;;;;;;;12.82;100.00;102224.97;4887589;29;20055;-76
2023/10/17 08:54:52;;;;;;;2.20;1.40;;;;;;;12.87;100.00;102228.56;4899936;29;20047;-76
2023/10/17 08:57:20;;;;;;;4.55;1.50;;;;;;;12.90;100.00;102225.97;4904511;29;20055;-76
2023/10/17 09:04:52;;;;;;;1.30;1.10;;;;;;;12.90;100.00;102235.66;4947197;29;20074;-75
2023/10/17 09:07:32;;;;;;;3.50;1.27;;;;;;;12.85;100.00;102233.84;4877806;29;20071;-77
2023/10/17 09:10:04;;;;;;;1.85;1.30;;;;;;;12.77;100.00;102237.22;4913715;29;20421;-76
2023/10/17 09:15:30;;;;;;;3.72;1.10;;;;;;;12.50;100.00;102245.59;4936650;28;20043;-77
2023/10/17 09:18:07;;;;;;;2.92;1.98;;;;;;;12.38;100.00;102247.16;4924864;29;20051;-76
2023/10/17 09:20:36;;;;;;;4.30;1.08;;;;;;;12.20;100.00;102247.69;4933750;29;20059;-76
2023/10/17 09:23:22;;;;;;;1.00;0.95;;;;;;;11.99;100.00;102257.84;4908014;28;20371;-77
2023/10/17 09:25:57;;;;;;;1.48;0.90;;;;;;;11.85;100.00;102252.25;4950684;29;20054;-77
2023/10/17 09:28:25;;;;;;;4.07;1.60;;;;;;;11.76;100.00;102254.69;4924114;29;20051;-77
2023/10/17 09:30:57;;;;;;;2.42;1.10;;;;;;;11.71;100.00;102259.88;4917233;29;20508;-77
2023/10/17 09:33:32;;;;;;;2.38;1.08;;;;;;;11.68;100.00;102263.38;4892793;29;20050;-76
2023/10/17 09:36:04;;;;;;;2.35;1.10;;;;;;;11.58;100.00;102261.38;4930654;29;20500;-76
2023/10/17 09:38:33;;;;;;;1.40;1.00;;;;;;;11.52;100.00;102263.88;4894973;29;20051;-76
2023/10/17 09:41:01;;;;;;;2.22;0.98;;;;;;;11.47;100.00;102260.25;4932458;29;20046;-76
2023/10/17 09:43:45;;;;;;;1.23;0.98;;;;;;;11.45;100.00;102254.91;4922443;29;20066;-77
2023/10/17 09:46:13;;;;;;;2.05;0.93;;;;;;;11.45;100.00;102254.91;4933402;29;20543;-76
2023/10/17 09:48:43;;;;;;;3.67;1.00;;;;;;;11.46;100.00;102250.56;4926509;29;20059;-75
2023/10/17 09:51:20;;;;;;;3.08;1.50;;;;;;;11.46;100.00;102248.81;4948919;29;20055;-76
2023/10/17 09:53:58;;;;;;;1.50;1.27;;;;;;;11.47;100.00;102249.69;4908853;28;20051;-76
2023/10/17 09:56:34;;;;;;;1.23;1.02;;;;;;;11.49;100.00;102253.25;4918872;29;20047;-78
2023/10/17 09:59:14;;;;;;;2.55;1.00;;;;;;;11.53;100.00;102252.47;4907514;29;20051;-76
2023/10/17 10:01:45;;;;;;;2.55;1.13;;;;;;;11.58;100.00;102253.44;4916378;28;21780;-77
2023/10/17 10:04:16;;;;;;;3.30;1.50;;;;;;;11.61;100.00;102244.72;4937034;28;20052;-77
2023/10/17 10:06:44;;;;;;;5.15;1.35;;;;;;;11.66;100.00;102253.59;4933193;29;20043;-77
2023/10/17 10:09:14;;;;;;;3.20;1.50;;;;;;;11.70;100.00;102245.81;4906651;29;20054;-77
2023/10/17 10:12:02;;;;;;;;;;;;;;;11.74;100.00;102252.03;4947916;29;20062;-76
2023/10/17 10:14:33;;;;;;;3.83;1.40;;;;;;;11.76;100.00;102252.06;4937577;28;19926;-76
2023/10/17 10:17:03;;;;;;;;;;;;;;;11.74;100.00;102245.84;4920808;29;20056;-77
2023/10/17 10:19:40;;;;;;;9.07;1.40;;;;;;;11.73;100.00;102238.81;4924061;28;19931;-77
2023/10/17 10:22:10;;;;;;;1.85;1.30;;;;;;;11.70;100.00;102235.25;4926838;29;20055;-77
2023/10/17 10:24:39;;;;;;;1.85;1.13;;;;;;;11.73;100.00;102241.44;4894376;29;20055;-77
2023/10/17 10:27:10;;;;;;;2.45;1.27;;;;;;;11.77;100.00;102235.34;4939650;28;20058;-79
2023/10/17 10:29:38;;;;;;;3.42;1.77;;;;;;;11.80;100.00;102240.72;4903397;29;20051;-77
2023/10/17 10:32:08;;;;;;;3.90;1.40;;;;;;;11.85;100.00;102233.75;4912936;28;20062;-76
2023/10/17 10:34:36;;;;;;;1.73;1.20;;;;;;;11.90;100.00;102235.66;4939316;28;20047;-76
2023/10/17 10:37:04;;;;;;;4.32;1.60;;;;;;;11.94;100.00;102233.97;4936511;28;20042;-77
2023/10/17 10:39:32;;;;;;;2.25;1.60;;;;;;;11.95;100.00;102222.56;4940928;28;20040;-77
2023/10/17 10:42:01;;;;;;;5.13;1.50;;;;;;;11.95;100.00;102225.19;4886070;28;20050;-76
2023/10/17 10:44:28;;;;;;;4.63;1.50;;;;;;;11.93;100.00;102226.00;4916550;29;20059;-76
2023/10/17 10:46:56;;;;;;;4.18;1.40;;;;;;;11.94;100.00;102211.97;4915770;28;20398;-76
2023/10/17 10:49:28;;;;;;;4.97;1.58;;;;;;;11.98;100.00;102205.88;4933138;29;20023;-76
2023/10/17 10:51:58;;;;;;;4.30;1.60;;;;;;;12.01;100.00;102222.66;4924063;29;20055;-77
2023/10/17 10:54:48;;;;;;;1.88;1.27;;;;;;;12.02;100.00;102215.63;4909935;29;20047;-77
2023/10/17 10:57:26;;;;;;;3.03;1.67;;;;;;;12.05;100.00;102208.66;4888174;29;20060;-76
2023/10/17 10:59:55;;;;;;;4.75;1.40;;;;;;;12.08;100.00;102216.66;4906835;29;20047;-77
2023/10/17 11:02:23;;;;;;;2.92;2.28;;;;;;;12.13;100.00;102203.50;4890258;29;20058;-76
2023/10/17 11:04:53;;;;;;;1.98;1.42;;;;;;;12.16;100.00;102203.56;4929153;29;20046;-77
2023/10/17 11:07:24;;;;;;;2.30;1.40;;;;;;;12.18;100.00;102196.56;4888649;29;20387;-78
2023/10/17 11:10:06;;;;;;;;;;;;;;;12.13;100.00;102197.34;4906450;28;20053;-76
2023/10/17 11:12:34;;;;;;;2.03;1.23;;;;;;;12.07;100.00;102195.47;4920167;28;19930;-77
2023/10/17 11:15:16;;;;;;;3.00;1.20;;;;;;;12.08;100.00;102184.94;4891650;29;20520;-77
2023/10/17 11:17:43;;;;;;;5.82;1.30;;;;;;;12.09;100.00;102184.06;4904175;28;20055;-78
2023/10/17 11:20:17;;;;;;;1.70;0.90;;;;;;;12.12;100.00;102184.97;4925462;29;20043;-77
2023/10/17 11:22:46;;;;;;;2.85;1.10;;;;;;;12.14;100.00;102180.63;4910840;29;20082;-75
2023/10/17 11:25:27;;;;;;;1.50;1.42;;;;;;;12.13;100.00;102182.38;4933977;28;20061;-77
2023/10/17 11:28:07;;;;;;;2.33;1.35;;;;;;;12.15;100.00;102185.03;4916180;29;20051;-76
2023/10/17 11:30:40;;;;;;;2.05;1.10;;;;;;;12.16;100.00;102186.84;4878221;29;20055;-77
2023/10/17 11:33:11;;;;;;;1.10;1.00;;;;;;;12.14;100.00;102176.25;4953238;28;20054;-77
2023/10/17 11:35:49;;;;;;;5.57;1.45;;;;;;;12.16;100.00;102177.16;4942597;28;20278;-76
2023/10/17 11:38:43;;;;;;;1.13;1.05;;;;;;;12.17;100.00;102176.28;4918315;29;20055;-76
2023/10/17 11:41:15;;;;;;;2.95;1.30;;;;;;;12.16;100.00;102171.88;4903062;29;20512;-77
2023/10/17 11:43:54;;;;;;;3.63;1.10;;;;;;;12.18;100.00;102175.41;4898431;29;20044;-77
2023/10/17 11:46:29;;;;;;;2.97;1.02;;;;;;;12.15;100.00;102167.44;4898062;29;20058;-77
2023/10/17 11:49:20;;;;;;;1.20;0.80;;;;;;;12.14;100.00;102165.66;4914854;29;20058;-77
2023/10/17 11:52:09;;;;;;;2.78;0.95;;;;;;;12.16;100.00;102169.22;4931495;28;20329;-77
2023/10/17 11:55:00;;;;;;;1.52;1.02;;;;;;;12.15;100.00;102174.47;4921780;29;20059;-77
2023/10/17 11:57:31;;;;;;;3.70;1.17;;;;;;;12.14;100.00;102175.34;4895100;28;20420;-77
2023/10/17 12:02:48;;;;;;;1.15;1.05;;;;;;;12.15;100.00;102171.84;4940263;28;20039;-77
2023/10/17 12:05:18;;;;;;;2.47;1.13;;;;;;;12.18;100.00;102171.91;4933817;29;20058;-77
2023/10/17 12:07:49;;;;;;;4.82;1.10;;;;;;;12.16;100.00;102168.34;4915079;29;20540;-77
2023/10/17 12:10:17;;;;;;;3.17;1.65;;;;;;;12.22;100.00;102168.44;4925518;29;20050;-78
2023/10/17 12:12:44;;;;;;;5.70;1.25;;;;;;;12.26;100.00;102165.88;4899041;28;20054;-76
2023/10/17 12:15:13;;;;;;;4.05;1.67;;;;;;;12.31;100.00;102162.44;4880830;29;20062;-76
2023/10/17 12:17:41;;;;;;;6.45;2.47;;;;;;;12.34;100.00;102154.53;4915563;29;20074;-76
2023/10/17 12:20:11;;;;;;;4.00;1.65;;;;;;;12.36;100.00;102148.44;4933250;28;20034;-76
2023/10/17 12:22:40;;;;;;;2.20;1.55;;;;;;;12.36;100.00;102156.38;4938873;29;20054;-76
2023/10/17 12:25:16;;;;;;;3.55;1.63;;;;;;;12.31;100.00;102155.38;4924294;29;20062;-76
2023/10/17 12:27:49;;;;;;;4.10;1.50;;;;;;;12.29;100.00;102163.28;4903242;29;20051;-76
2023/10/17 12:30:22;;;;;;;4.80;1.55;;;;;;;12.28;100.00;102160.59;4885078;28;20043;-77
2023/10/17 12:32:50;;;;;;;2.45;1.20;;;;;;;12.29;100.00;102157.13;4904548;29;20058;-77
2023/10/17 12:35:21;;;;;;;2.03;1.70;;;;;;;12.27;100.00;102153.56;4918023;28;20062;-77
2023/10/17 12:37:52;;;;;;;2.85;1.58;;;;;;;12.21;99.86;102150.78;4912910;29;20051;-77
2023/10/17 12:40:22;;;;;;;;;;;;;;;12.15;96.79;102143.66;4930012;28;20051;-77
2023/10/17 12:42:55;;;;;;;1.58;1.48;;;;;;;12.14;100.00;102136.59;4908854;28;20403;-77
2023/10/17 12:45:24;;;;;;;2.60;1.40;;;;;;;12.14;100.00;102133.97;4894251;28;20520;-77
2023/10/17 12:47:54;;;;;;;2.63;1.70;;;;;;;12.10;100.00;102129.50;4903448;29;20406;-77
2023/10/17 12:50:22;;;;;;;4.13;1.43;;;;;;;12.10;100.00;102134.78;4919950;29;20047;-77
2023/10/17 12:52:49;;;;;;;1.85;1.30;;;;;;;12.12;100.00;102129.50;4961333;28;20082;-77
2023/10/17 12:55:19;;;;;;;2.58;1.52;;;;;;;12.14;100.00;102122.50;4909124;29;20055;-76
2023/10/17 12:57:46;;;;;;;4.22;1.90;;;;;;;12.15;100.00;102117.22;4927654;29;20074;-76
2023/10/17 13:00:15;;;;;;;3.20;1.77;;;;;;;12.16;100.00;102120.78;4915589;29;20042;-76
2023/10/17 13:02:47;;;;;;;3.22;1.95;;;;;;;12.15;99.73;102121.63;4888135;29;20070;-77
2023/10/17 13:05:16;;;;;;;2.60;1.60;;;;;;;12.13;99.79;102115.44;4899027;28;20411;-77
2023/10/17 13:07:43;;;;;;;3.15;1.52;;;;;;;12.12;100.00;102114.53;4924578;29;20298;-76
2023/10/17 13:10:12;;;;;;;1.55;1.05;;;;;;;12.13;99.99;102111.03;4907600;29;20082;-76
2023/10/17 13:12:39;;;;;;;3.70;1.63;;;;;;;12.13;100.00;102099.56;4919767;29;20059;-76
2023/10/17 13:15:08;;;;;;;1.73;1.52;;;;;;;12.11;99.49;102101.31;4922934;29;20054;-76
2023/10/17 13:17:37;;;;;;;5.33;1.20;;;;;;;12.07;98.80;102092.44;4890371;29;20062;-77
2023/10/17 13:20:09;;;;;;;1.38;1.10;;;;;;;12.05;99.30;102097.69;4915378;29;20291;-77
2023/10/17 13:22:49;;;;;;;1.48;1.17;;;;;;;12.03;99.85;102096.78;4904858;29;20047;-76
2023/10/17 13:25:19;;;;;;;2.08;1.10;;;;;;;12.03;99.92;102085.31;4910756;29;20429;-78
2023/10/17 13:27:47;;;;;;;1.38;1.13;;;;;;;12.00;99.33;102080.88;4905041;29;20047;-76
2023/10/17 13:30:15;;;;;;;2.88;1.38;;;;;;;11.99;99.38;102078.22;4901509;29;20044;-77
2023/10/17 13:32:44;;;;;;;5.70;1.40;;;;;;;11.98;99.69;102071.13;4896743;29;21178;-75
2023/10/17 13:35:11;;;;;;;2.17;1.30;;;;;;;11.97;99.71;102069.38;4903431;29;20047;-76
2023/10/17 13:37:51;;;;;;;1.70;1.05;;;;;;;11.94;100.00;102064.91;4917173;29;20270;-78
2023/10/17 13:40:21;;;;;;;3.47;1.50;;;;;;;11.95;100.00;102069.34;4901025;29;20795;-76
2023/10/17 13:42:51;;;;;;;2.93;1.10;;;;;;;11.94;100.00;102064.91;4910761;29;20051;-77
2023/10/17 13:45:22;;;;;;;2.57;1.00;;;;;;;11.90;99.50;102068.38;4935039;29;20039;-77
2023/10/17 13:47:53;;;;;;;2.80;0.98;;;;;;;11.90;100.00;102063.97;4926159;29;20047;-76
2023/10/17 13:50:21;;;;;;;1.20;0.82;;;;;;;11.90;100.00;102057.81;4857705;29;20047;-76
2023/10/17 13:52:51;;;;;;;4.95;0.85;;;;;;;11.89;99.72;102062.22;4924949;29;20474;-76
2023/10/17 13:55:28;;;;;;;3.83;1.07;;;;;;;11.88;100.00;102067.41;4946166;29;20046;-77
2023/10/17 13:57:55;;;;;;;4.13;1.30;;;;;;;11.86;100.00;102056.81;4889379;29;20319;-77
2023/10/17 14:00:23;;;;;;;6.03;2.03;;;;;;;11.84;99.92;102052.38;4903702;29;20051;-77
2023/10/17 14:02:51;;;;;;;2.55;1.10;;;;;;;11.85;100.00;102056.78;4941858;29;20051;-76
2023/10/17 14:05:19;;;;;;;3.00;1.23;;;;;;;11.85;100.00;102038.31;4847894;29;20497;-77
2023/10/17 14:07:48;;;;;;;1.52;0.98;;;;;;;11.81;100.00;102045.28;4915985;29;20054;-77
2023/10/17 14:10:16;;;;;;;0.98;0.95;;;;;;;11.80;100.00;102048.81;4916401;29;20051;-77
2023/10/17 14:12:46;;;;;;;2.47;1.15;;;;;;;11.78;99.66;102045.25;4922301;28;20059;-78
2023/10/17 14:15:14;;;;;;;3.47;1.20;;;;;;;11.77;99.67;102042.56;4898106;29;20505;-78